createdAt,value
2022-07-31T00:02:08.833Z,2.88
2022-07-31T00:04:35.653Z,2.53
2022-07-31T00:07:03.130Z,2.53
2022-07-31T00:09:52.448Z,2.30
2022-07-31T00:12:17.532Z,2.67
2022-07-31T00:14:45.105Z,3.30
2022-07-31T00:17:11.917Z,3.45
2022-07-31T00:19:38.684Z,3.70
2022-07-31T00:22:05.479Z,2.95
2022-07-31T00:24:32.175Z,3.10
2022-07-31T00:26:59.063Z,2.72
2022-07-31T00:29:26.206Z,2.45
2022-07-31T00:31:53.153Z,2.60
2022-07-31T00:34:19.844Z,2.80
2022-07-31T00:36:46.559Z,2.53
2022-07-31T00:39:13.296Z,2.97
2022-07-31T00:41:42.477Z,3.42
2022-07-31T00:44:12.240Z,2.88
2022-07-31T00:46:40.497Z,3.00
2022-07-31T00:49:10.204Z,2.95
2022-07-31T00:51:38.382Z,2.50
2022-07-31T00:54:06.661Z,2.80
2022-07-31T00:56:33.437Z,2.70
2022-07-31T00:59:00.636Z,2.80
2022-07-31T01:01:27.874Z,2.70
2022-07-31T01:03:54.825Z,2.60
2022-07-31T01:06:21.774Z,2.65
2022-07-31T01:08:48.693Z,2.42
2022-07-31T01:11:36.332Z,2.60
2022-07-31T01:14:09.102Z,3.10
2022-07-31T01:16:39.177Z,3.03
2022-07-31T01:19:15.054Z,3.63
2022-07-31T01:22:08.252Z,2.80
2022-07-31T01:25:22.683Z,2.53
2022-07-31T01:28:30.209Z,2.97
2022-07-31T01:31:24.328Z,2.72
2022-07-31T01:33:49.877Z,2.70
2022-07-31T01:36:20.792Z,3.15
2022-07-31T01:38:51.724Z,3.10
2022-07-31T01:41:23.517Z,3.15
2022-07-31T01:43:53.267Z,2.70
2022-07-31T01:46:21.485Z,3.00
2022-07-31T01:48:50.053Z,3.13
2022-07-31T01:51:19.300Z,2.92
2022-07-31T01:53:47.064Z,3.50
2022-07-31T01:56:17.301Z,3.45
2022-07-31T01:58:44.834Z,3.20
2022-07-31T02:01:28.661Z,2.90
2022-07-31T02:03:57.058Z,3.10
2022-07-31T02:06:28.092Z,2.92
2022-07-31T02:08:56.323Z,2.80
2022-07-31T02:11:24.601Z,2.78
2022-07-31T02:13:53.369Z,2.97
2022-07-31T02:16:21.984Z,3.33
2022-07-31T02:18:54.188Z,3.03
2022-07-31T02:21:25.971Z,2.85
2022-07-31T02:23:53.473Z,3.03
2022-07-31T02:26:20.527Z,2.80
2022-07-31T02:28:47.914Z,2.97
2022-07-31T02:31:17.067Z,3.33
2022-07-31T02:33:47.206Z,2.90
2022-07-31T02:36:17.949Z,2.90
2022-07-31T02:38:45.012Z,3.10
2022-07-31T02:41:12.687Z,2.80
2022-07-31T02:43:39.611Z,3.00
2022-07-31T02:46:15.933Z,2.78
2022-07-31T02:48:43.076Z,2.75
2022-07-31T02:51:12.484Z,3.35
2022-07-31T02:53:41.497Z,3.17
2022-07-31T02:56:10.004Z,2.85
2022-07-31T02:58:41.963Z,3.08
2022-07-31T03:01:14.583Z,2.90
2022-07-31T03:03:43.114Z,2.90
2022-07-31T03:06:11.230Z,2.75
2022-07-31T03:08:38.525Z,3.22
2022-07-31T03:11:05.901Z,3.20
2022-07-31T03:13:34.721Z,3.13
2022-07-31T03:16:01.749Z,2.70
2022-07-31T03:18:29.091Z,2.95
2022-07-31T03:20:56.349Z,3.10
2022-07-31T03:23:25.642Z,3.00
2022-07-31T03:25:58.268Z,2.95
2022-07-31T03:28:24.986Z,3.25
2022-07-31T03:30:56.207Z,2.67
2022-07-31T03:33:26.275Z,3.10
2022-07-31T03:35:53.393Z,2.90
2022-07-31T03:38:38.517Z,2.80
2022-07-31T03:41:07.767Z,2.88
2022-07-31T03:43:47.211Z,2.58
2022-07-31T03:46:19.268Z,2.63
2022-07-31T03:48:46.672Z,2.70
2022-07-31T03:51:13.969Z,2.60
2022-07-31T03:53:41.729Z,2.90
2022-07-31T03:56:12.419Z,2.92
2022-07-31T03:58:39.412Z,2.80
2022-07-31T04:01:08.357Z,3.08
2022-07-31T04:03:39.670Z,2.63
2022-07-31T04:06:28.256Z,2.78
2022-07-31T04:08:55.846Z,2.45
2022-07-31T04:11:22.896Z,2.65
2022-07-31T04:13:49.953Z,2.72
2022-07-31T04:16:16.716Z,3.00
2022-07-31T04:18:43.683Z,2.80
2022-07-31T04:21:17.933Z,2.93
2022-07-31T04:23:48.903Z,2.72
2022-07-31T04:26:30.544Z,2.70
2022-07-31T04:29:01.070Z,2.47
2022-07-31T04:31:28.086Z,2.65
2022-07-31T04:33:57.075Z,2.80
2022-07-31T04:36:29.954Z,2.80
2022-07-31T04:39:00.205Z,2.88
2022-07-31T04:41:27.890Z,3.20
2022-07-31T04:43:54.855Z,3.20
2022-07-31T04:46:21.942Z,2.80
2022-07-31T04:48:49.190Z,2.55
2022-07-31T04:51:21.072Z,3.10
2022-07-31T04:53:50.157Z,3.30
2022-07-31T04:56:41.820Z,2.60
2022-07-31T04:59:17.444Z,3.08
2022-07-31T05:01:47.855Z,3.70
2022-07-31T05:04:17.191Z,3.35
2022-07-31T05:06:45.013Z,3.05
2022-07-31T05:09:18.849Z,3.13
2022-07-31T05:11:48.227Z,3.58
2022-07-31T05:14:20.222Z,3.55
2022-07-31T05:16:47.357Z,3.60
2022-07-31T05:19:16.309Z,3.60
2022-07-31T05:22:02.632Z,3.70
2022-07-31T05:24:47.967Z,4.32
2022-07-31T05:27:14.688Z,4.05
2022-07-31T05:29:45.390Z,4.10
2022-07-31T05:32:12.608Z,4.20
2022-07-31T05:34:39.579Z,4.40
2022-07-31T05:37:06.531Z,3.63
2022-07-31T05:39:36.650Z,4.00
2022-07-31T05:42:21.910Z,4.00
2022-07-31T05:45:14.964Z,4.22
2022-07-31T05:47:41.667Z,4.20
2022-07-31T05:50:10.530Z,4.65
2022-07-31T05:52:37.987Z,4.15
2022-07-31T05:55:25.838Z,4.28
2022-07-31T06:00:45.985Z,4.50
2022-07-31T06:03:13.369Z,3.60
2022-07-31T06:05:56.616Z,4.22
2022-07-31T06:08:23.640Z,3.35
2022-07-31T06:10:51.599Z,3.88
2022-07-31T06:13:19.401Z,3.33
2022-07-31T06:15:51.303Z,3.38
2022-07-31T06:18:18.259Z,3.67
2022-07-31T06:20:45.174Z,3.20
2022-07-31T06:23:19.928Z,3.08
2022-07-31T06:25:55.959Z,3.75
2022-07-31T06:28:29.077Z,3.10
2022-07-31T06:31:24.644Z,3.38
2022-07-31T06:33:55.130Z,2.97
2022-07-31T06:36:25.605Z,2.80
2022-07-31T06:39:00.828Z,2.63
2022-07-31T06:41:46.236Z,2.50
2022-07-31T06:44:28.806Z,2.88
2022-07-31T06:47:16.288Z,2.60
2022-07-31T06:49:57.791Z,2.95
2022-07-31T06:52:29.282Z,2.72
2022-07-31T06:54:56.345Z,2.92
2022-07-31T06:57:23.095Z,2.70
2022-07-31T06:59:49.892Z,2.40
2022-07-31T07:02:16.817Z,3.05
2022-07-31T07:04:57.386Z,2.70
2022-07-31T07:07:31.549Z,2.30
2022-07-31T07:10:00.464Z,2.97
2022-07-31T07:12:55.914Z,2.40
2022-07-31T07:15:22.955Z,2.42
2022-07-31T07:17:49.674Z,2.78
2022-07-31T07:20:27.672Z,3.08
2022-07-31T07:22:54.371Z,3.17
2022-07-31T07:25:45.694Z,3.03
2022-07-31T07:28:29.431Z,2.70
2022-07-31T07:30:58.903Z,2.85
2022-07-31T07:33:39.498Z,2.45
2022-07-31T07:36:24.094Z,2.75
2022-07-31T07:39:11.708Z,2.80
2022-07-31T07:41:41.809Z,2.58
2022-07-31T07:44:09.336Z,3.80
2022-07-31T07:46:37.334Z,2.78
2022-07-31T07:49:06.761Z,2.65
2022-07-31T07:51:59.425Z,2.90
2022-07-31T07:54:47.065Z,3.05
2022-07-31T07:57:32.774Z,2.53
2022-07-31T08:00:07.827Z,2.30
2022-07-31T08:02:44.972Z,2.63
2022-07-31T08:05:31.968Z,3.08
2022-07-31T08:07:59.723Z,2.60
2022-07-31T08:10:41.209Z,2.30
2022-07-31T08:13:17.795Z,2.83
2022-07-31T08:16:07.605Z,3.35
2022-07-31T08:18:45.142Z,2.63
2022-07-31T08:21:12.103Z,2.60
2022-07-31T08:23:38.885Z,2.60
2022-07-31T08:26:08.704Z,2.85
2022-07-31T08:28:37.000Z,2.35
2022-07-31T08:31:03.887Z,2.90
2022-07-31T08:33:33.310Z,2.30
2022-07-31T08:36:00.827Z,2.75
2022-07-31T08:38:29.046Z,2.47
2022-07-31T08:41:32.827Z,2.38
2022-07-31T08:44:04.155Z,2.67
2022-07-31T08:46:37.501Z,2.70
2022-07-31T08:49:05.714Z,2.50
2022-07-31T08:51:52.527Z,2.33
2022-07-31T08:54:53.724Z,2.42
2022-07-31T08:57:23.388Z,3.97
2022-07-31T08:59:52.475Z,2.22
2022-07-31T09:02:19.708Z,2.10
2022-07-31T09:05:13.291Z,2.40
2022-07-31T09:07:41.152Z,2.72
2022-07-31T09:10:27.879Z,2.55
2022-07-31T09:12:56.703Z,2.55
2022-07-31T09:15:31.157Z,2.25
2022-07-31T09:18:01.396Z,2.50
2022-07-31T09:20:29.563Z,2.50
2022-07-31T09:23:05.311Z,2.35
2022-07-31T09:25:32.606Z,2.65
2022-07-31T09:28:06.823Z,3.00
2022-07-31T09:30:34.685Z,2.10
2022-07-31T09:33:31.810Z,2.33
2022-07-31T09:36:23.153Z,2.40
2022-07-31T09:38:56.676Z,2.05
2022-07-31T09:41:58.080Z,2.20
2022-07-31T09:44:43.614Z,2.33
2022-07-31T09:47:40.028Z,2.10
2022-07-31T09:50:07.175Z,2.05
2022-07-31T09:52:33.858Z,2.38
2022-07-31T09:55:16.016Z,2.10
2022-07-31T09:58:01.262Z,2.15
2022-07-31T10:00:35.093Z,2.00
2022-07-31T10:03:02.754Z,1.88
2022-07-31T10:05:29.577Z,1.75
2022-07-31T10:08:00.551Z,2.17
2022-07-31T10:10:46.645Z,1.92
2022-07-31T10:13:31.510Z,2.20
2022-07-31T10:16:00.129Z,1.80
2022-07-31T10:18:55.059Z,2.40
2022-07-31T10:21:45.002Z,2.00
2022-07-31T10:24:27.980Z,1.95
2022-07-31T10:27:09.250Z,1.80
2022-07-31T10:29:40.000Z,1.85
2022-07-31T10:32:07.880Z,1.63
2022-07-31T10:34:39.252Z,1.70
2022-07-31T10:37:54.373Z,1.88
2022-07-31T10:40:53.019Z,1.63
2022-07-31T10:43:24.946Z,1.80
2022-07-31T10:46:12.930Z,1.90
2022-07-31T10:48:53.199Z,2.40
2022-07-31T10:52:01.362Z,1.92
2022-07-31T10:55:14.992Z,1.90
2022-07-31T10:58:44.575Z,1.80
2022-07-31T11:01:38.871Z,1.73
2022-07-31T11:07:36.773Z,1.88
2022-07-31T11:10:27.872Z,2.08
2022-07-31T11:13:36.787Z,2.00
2022-07-31T11:16:23.735Z,1.63
2022-07-31T11:22:31.968Z,1.70
2022-07-31T11:25:00.839Z,2.03
2022-07-31T11:27:34.345Z,1.80
2022-07-31T11:30:13.007Z,1.90
2022-07-31T11:32:41.924Z,1.67
2022-07-31T11:35:09.088Z,2.30
2022-07-31T11:37:56.925Z,2.03
2022-07-31T11:40:27.319Z,2.58
2022-07-31T11:43:23.199Z,2.17
2022-07-31T11:45:52.579Z,1.73
2022-07-31T11:48:21.053Z,2.03
2022-07-31T11:50:49.911Z,2.30
2022-07-31T11:53:18.369Z,2.20
2022-07-31T11:55:46.072Z,2.50
2022-07-31T11:58:14.227Z,2.28
2022-07-31T12:00:46.977Z,2.30
2022-07-31T12:03:13.832Z,2.10
2022-07-31T12:05:46.734Z,1.90
2022-07-31T12:08:13.756Z,2.03
2022-07-31T12:10:52.813Z,2.45
2022-07-31T12:13:21.225Z,2.20
2022-07-31T12:16:00.587Z,2.10
2022-07-31T12:18:28.681Z,2.10
2022-07-31T12:20:57.093Z,2.00
2022-07-31T12:23:38.614Z,2.30
2022-07-31T12:26:08.800Z,2.30
2022-07-31T12:28:35.530Z,2.60
2022-07-31T12:31:02.336Z,2.50
2022-07-31T12:33:40.165Z,2.58
2022-07-31T12:36:17.263Z,2.45
2022-07-31T12:38:48.371Z,3.67
2022-07-31T12:41:16.051Z,2.63
2022-07-31T12:43:51.743Z,3.15
2022-07-31T12:46:34.599Z,3.17
2022-07-31T12:49:01.615Z,2.80
2022-07-31T12:51:44.342Z,2.70
2022-07-31T12:54:16.493Z,2.88
2022-07-31T12:56:44.013Z,4.32
2022-07-31T12:59:11.290Z,3.20
2022-07-31T13:01:38.526Z,2.20
2022-07-31T13:04:07.620Z,2.88
2022-07-31T13:06:36.140Z,4.18
2022-07-31T13:09:03.342Z,4.05
2022-07-31T13:11:46.837Z,2.72
2022-07-31T13:14:20.024Z,2.65
2022-07-31T13:16:47.637Z,3.13
2022-07-31T13:19:15.059Z,2.63
2022-07-31T13:21:49.539Z,2.88
2022-07-31T13:24:21.446Z,2.70
2022-07-31T13:26:49.586Z,2.90
2022-07-31T13:29:17.274Z,3.03
2022-07-31T13:31:44.238Z,3.45
2022-07-31T13:34:10.871Z,3.47
2022-07-31T13:36:38.887Z,3.10
2022-07-31T13:39:09.643Z,3.03
2022-07-31T13:41:38.897Z,2.65
2022-07-31T13:44:06.431Z,2.88
2022-07-31T13:46:33.340Z,2.53
2022-07-31T13:49:01.919Z,2.40
2022-07-31T13:51:29.757Z,2.47
2022-07-31T13:53:56.653Z,2.72
2022-07-31T13:56:38.790Z,2.97
2022-07-31T13:59:09.886Z,2.70
2022-07-31T14:02:02.876Z,2.33
2022-07-31T14:04:32.361Z,2.65
2022-07-31T14:07:04.147Z,3.10
2022-07-31T14:09:34.086Z,2.92
2022-07-31T14:12:03.819Z,2.60
2022-07-31T14:14:31.508Z,2.40
2022-07-31T14:16:58.368Z,3.00
2022-07-31T14:19:25.426Z,2.70
2022-07-31T14:22:11.367Z,2.83
2022-07-31T14:24:38.534Z,3.05
2022-07-31T14:27:07.823Z,2.50
2022-07-31T14:29:36.184Z,2.75
2022-07-31T14:32:03.461Z,4.10
2022-07-31T14:34:35.825Z,4.35
2022-07-31T14:37:03.257Z,2.78
2022-07-31T14:39:30.634Z,3.00
2022-07-31T14:41:57.408Z,2.78
2022-07-31T14:44:28.630Z,3.80
2022-07-31T14:46:56.131Z,2.90
2022-07-31T14:49:26.140Z,2.40
2022-07-31T14:52:12.943Z,2.30
2022-07-31T14:54:39.694Z,2.15
2022-07-31T14:57:12.054Z,2.10
2022-07-31T14:59:39.182Z,2.10
2022-07-31T15:02:06.196Z,1.92
2022-07-31T15:04:35.756Z,2.00
2022-07-31T15:07:32.531Z,2.05
2022-07-31T15:09:52.599Z,2.40
2022-07-31T15:12:19.887Z,2.45
2022-07-31T15:14:46.602Z,2.45
2022-07-31T15:17:13.353Z,2.55
2022-07-31T15:19:42.301Z,2.92
2022-07-31T15:22:16.447Z,3.00
2022-07-31T15:24:52.799Z,4.13
2022-07-31T15:27:22.135Z,3.38
2022-07-31T15:30:04.146Z,4.20
2022-07-31T15:32:39.158Z,3.53
2022-07-31T15:35:08.239Z,3.90
2022-07-31T15:40:55.976Z,3.72
2022-07-31T15:43:24.352Z,4.25
2022-07-31T15:45:51.503Z,3.38
2022-07-31T15:48:18.651Z,3.25
2022-07-31T15:50:45.676Z,3.00
2022-07-31T15:53:18.775Z,3.05
2022-07-31T15:55:45.654Z,3.47
2022-07-31T16:01:17.725Z,2.80
2022-07-31T16:03:53.124Z,2.70
2022-07-31T16:06:20.894Z,2.78
2022-07-31T16:12:03.891Z,2.60
2022-07-31T16:14:43.820Z,3.05
2022-07-31T16:17:10.947Z,2.70
2022-07-31T16:19:40.652Z,2.75
2022-07-31T16:22:07.505Z,2.80
2022-07-31T16:24:35.495Z,3.08
2022-07-31T16:27:02.529Z,2.75
2022-07-31T16:29:59.091Z,2.72
2022-07-31T16:32:16.366Z,2.88
2022-07-31T16:34:47.024Z,2.80
2022-07-31T16:37:17.412Z,2.75
2022-07-31T16:39:45.575Z,2.65
2022-07-31T16:42:13.267Z,3.17
2022-07-31T16:44:41.502Z,3.10
2022-07-31T16:47:08.997Z,2.90
2022-07-31T16:49:37.689Z,2.50
2022-07-31T16:52:06.540Z,2.47
2022-07-31T16:54:33.720Z,2.90
2022-07-31T16:57:00.392Z,2.47
2022-07-31T16:59:27.098Z,2.40
2022-07-31T17:01:59.860Z,4.00
2022-07-31T17:04:28.152Z,2.40
2022-07-31T17:06:55.465Z,2.20
2022-07-31T17:09:23.010Z,1.88
2022-07-31T17:11:52.907Z,2.55
2022-07-31T17:14:21.458Z,2.92
2022-07-31T17:16:52.634Z,2.65
2022-07-31T17:19:41.139Z,2.40
2022-07-31T17:22:18.638Z,3.67
2022-07-31T17:24:50.664Z,3.17
2022-07-31T17:27:19.050Z,2.60
2022-07-31T17:29:47.186Z,2.42
2022-07-31T17:32:14.081Z,3.55
2022-07-31T17:34:41.104Z,2.60
2022-07-31T17:37:08.567Z,3.00
2022-07-31T17:39:36.087Z,2.67
2022-07-31T17:42:03.110Z,2.58
2022-07-31T17:44:30.186Z,2.70
2022-07-31T17:46:57.956Z,2.90
2022-07-31T17:49:25.421Z,2.95
2022-07-31T17:51:59.067Z,2.92
2022-07-31T17:54:28.749Z,3.20
2022-07-31T17:56:55.745Z,3.10
2022-07-31T17:59:23.246Z,2.88
2022-07-31T18:01:51.486Z,3.63
2022-07-31T18:04:19.526Z,4.03
2022-07-31T18:06:46.200Z,3.60
2022-07-31T18:09:15.105Z,3.13
2022-07-31T18:11:42.263Z,3.00
2022-07-31T18:14:09.517Z,3.28
2022-07-31T18:16:38.234Z,2.83
2022-07-31T18:19:04.950Z,2.60
2022-07-31T18:21:31.892Z,2.88
2022-07-31T18:24:04.781Z,3.40
2022-07-31T18:26:32.285Z,3.17
2022-07-31T18:28:59.338Z,3.10
2022-07-31T18:31:34.729Z,3.17
2022-07-31T18:34:06.105Z,3.17
2022-07-31T18:36:33.642Z,3.20
2022-07-31T18:39:00.802Z,4.13
2022-07-31T18:41:27.912Z,4.72
2022-07-31T18:43:55.026Z,5.95
2022-07-31T18:46:23.755Z,7.97
2022-07-31T18:48:55.470Z,7.15
2022-07-31T18:51:24.176Z,6.40
2022-07-31T18:53:51.438Z,6.80
2022-07-31T18:56:18.219Z,6.60
2022-07-31T18:58:45.396Z,6.90
2022-07-31T19:01:12.185Z,6.28
2022-07-31T19:03:38.891Z,6.57
2022-07-31T19:06:09.746Z,7.38
2022-07-31T19:08:46.120Z,6.82
2022-07-31T19:11:13.035Z,6.65
2022-07-31T19:13:39.938Z,7.53
2022-07-31T19:16:06.884Z,7.43
2022-07-31T19:18:34.287Z,7.00
2022-07-31T19:21:23.046Z,7.13
2022-07-31T19:23:48.733Z,7.75
2022-07-31T19:26:15.594Z,6.72
2022-07-31T19:28:43.405Z,6.40
2022-07-31T19:31:10.808Z,6.88
2022-07-31T19:33:37.881Z,9.40
2022-07-31T19:36:05.058Z,6.75
2022-07-31T19:38:35.925Z,7.10
2022-07-31T19:41:03.436Z,6.45
2022-07-31T19:43:30.753Z,5.72
2022-07-31T19:46:09.962Z,6.00
2022-07-31T19:48:44.195Z,6.10
2022-07-31T19:51:12.175Z,5.13
2022-07-31T19:53:39.913Z,5.25
2022-07-31T19:56:07.012Z,5.70
2022-07-31T19:58:35.096Z,5.90
2022-07-31T20:01:03.358Z,5.13
2022-07-31T20:03:30.214Z,4.75
2022-07-31T20:05:57.719Z,4.82
2022-07-31T20:08:24.933Z,4.53
2022-07-31T20:10:51.826Z,4.30
2022-07-31T20:13:18.926Z,4.40
2022-07-31T20:15:52.203Z,3.97
2022-07-31T20:18:27.194Z,4.30
2022-07-31T20:21:00.400Z,4.50
2022-07-31T20:23:27.605Z,4.57
2022-07-31T20:25:55.039Z,4.20
2022-07-31T20:28:22.404Z,4.43
2022-07-31T20:30:49.591Z,5.97
2022-07-31T20:33:16.327Z,4.88
2022-07-31T20:35:47.884Z,5.15
2022-07-31T20:38:23.737Z,4.22
2022-07-31T20:40:55.437Z,4.45
2022-07-31T20:43:24.509Z,5.53
2022-07-31T20:45:51.654Z,4.18
2022-07-31T20:48:47.669Z,4.65
2022-07-31T20:51:20.465Z,4.78
2022-07-31T20:53:48.111Z,4.63
2022-07-31T20:56:14.908Z,4.50
2022-07-31T20:58:41.992Z,4.75
2022-07-31T21:01:12.169Z,5.00
2022-07-31T21:03:39.111Z,4.45
2022-07-31T21:06:06.115Z,4.38
2022-07-31T21:08:35.564Z,4.53
2022-07-31T21:11:02.494Z,4.70
2022-07-31T21:13:29.829Z,4.97
2022-07-31T21:15:56.686Z,4.38
2022-07-31T21:18:23.408Z,4.28
2022-07-31T21:20:53.588Z,4.75
2022-07-31T21:23:24.827Z,4.57
2022-07-31T21:25:53.159Z,4.38
2022-07-31T21:28:23.136Z,5.03
2022-07-31T21:30:50.719Z,4.45
2022-07-31T21:33:18.345Z,4.45
2022-07-31T21:35:46.613Z,4.60
2022-07-31T21:38:16.307Z,4.38
2022-07-31T21:40:47.238Z,5.43
2022-07-31T21:43:18.678Z,5.32
2022-07-31T21:45:57.450Z,5.13
2022-07-31T21:48:31.415Z,5.10
2022-07-31T21:51:02.408Z,5.15
2022-07-31T21:53:29.455Z,5.35
2022-07-31T21:56:02.683Z,5.40
2022-07-31T21:58:34.866Z,4.82
2022-07-31T22:01:01.641Z,4.90
2022-07-31T22:03:28.406Z,5.13
2022-07-31T22:06:17.295Z,4.72
2022-07-31T22:08:44.211Z,4.85
2022-07-31T22:11:12.295Z,6.00
2022-07-31T22:13:39.481Z,7.65
2022-07-31T22:16:06.961Z,5.32
2022-07-31T22:18:34.858Z,6.65
2022-07-31T22:21:06.008Z,5.38
2022-07-31T22:23:32.920Z,6.57
2022-07-31T22:26:00.309Z,5.30
2022-07-31T22:28:27.800Z,5.13
2022-07-31T22:30:55.743Z,5.40
2022-07-31T22:33:22.984Z,5.72
2022-07-31T22:35:58.253Z,5.50
2022-07-31T22:38:30.881Z,5.72
2022-07-31T22:40:59.301Z,5.20
2022-07-31T22:44:12.833Z,5.70
2022-07-31T22:46:13.295Z,5.30
2022-07-31T22:48:40.847Z,5.70
2022-07-31T22:51:08.396Z,5.40
2022-07-31T22:53:35.376Z,5.82
2022-07-31T22:56:02.132Z,5.60
2022-07-31T22:58:29.197Z,5.70
2022-07-31T23:00:56.389Z,6.47
2022-07-31T23:03:23.247Z,6.00
2022-07-31T23:06:02.759Z,5.70
2022-07-31T23:08:37.582Z,8.07
2022-07-31T23:11:04.600Z,5.10
2022-07-31T23:13:31.577Z,5.43
2022-07-31T23:15:58.224Z,5.45
2022-07-31T23:18:27.492Z,6.57
2022-07-31T23:20:54.263Z,5.90
2022-07-31T23:23:20.929Z,5.65
2022-07-31T23:25:47.585Z,6.40
2022-07-31T23:28:14.193Z,7.63
2022-07-31T23:30:41.251Z,5.90
2022-07-31T23:33:08.012Z,5.80
2022-07-31T23:35:34.681Z,5.85
2022-07-31T23:38:01.684Z,5.72
2022-07-31T23:40:28.456Z,6.43
2022-07-31T23:42:55.970Z,6.07
2022-07-31T23:45:23.717Z,7.10
2022-07-31T23:47:50.818Z,6.60
2022-07-31T23:50:17.584Z,6.50
2022-07-31T23:52:44.511Z,8.40
2022-07-31T23:55:12.092Z,7.78
2022-07-31T23:57:40.181Z,7.53
